Time;durP1;ratioP1;P1;durP2;ratioP2;P2;SDS_P1;SDS_P2;PMS_P1;PMS_P2;Temp;Humidity;BMP_temperature;BMP_pressure;BME280_temperature;BME280_humidity;BME280_pressure;Samples;Min_cycle;Max_cycle;Signal;HPM_P1;HPM_P2
2023/06/08 04:45:33;;;;;;;8.77;5.97;;;;;;;;;;5135757;27;20462;-81
2023/06/08 04:54:13;;;;;;;6.67;5.57;;;;;;;;;;5134610;27;20267;-81
2023/06/08 05:02:31;;;;;;;6.20;5.60;;;;;;;;;;5155860;27;20277;-82
2023/06/08 05:09:47;;;;;;;6.80;6.10;;;13.30;99.90;;;;;;5135469;27;20285;-82
2023/06/08 05:16:11;;;;;;;6.37;5.73;;;13.40;99.90;;;;;;5135827;27;20598;-82
2023/06/08 05:23:12;;;;;;;8.77;6.40;;;;;;;;;;5136207;27;20278;-82
2023/06/08 05:29:49;;;;;;;6.23;5.20;;;;;;;;;;5139870;27;20271;-82
2023/06/08 05:35:12;;;;;;;8.07;5.60;;;;;;;;;;5135683;27;20581;-82
2023/06/08 05:41:10;;;;;;;6.93;5.00;;;14.30;99.90;;;;;;5138266;27;20282;-82
2023/06/08 05:46:58;;;;;;;5.67;4.53;;;14.60;99.90;;;;;;5135250;27;20278;-83
2023/06/08 05:51:37;;;;;;;7.33;4.87;;;14.60;99.90;;;;;;5135235;27;20274;-84
2023/06/08 05:56:32;;;;;;;5.67;4.77;;;14.80;99.90;;;;;;5175832;27;20269;-83
2023/06/08 06:01:27;;;;;;;5.33;4.53;;;13.90;99.90;;;;;;5113998;27;20280;-80
2023/06/08 06:06:20;;;;;;;5.83;4.30;;;15.20;99.90;;;;;;5134290;27;20286;-80
2023/06/08 06:11:11;;;;;;;6.30;4.63;;;15.50;99.90;;;;;;5133953;27;20274;-81
2023/06/08 06:16:02;;;;;;;4.63;3.87;;;15.80;99.90;;;;;;5137472;27;20266;-82
2023/06/08 06:19:52;;;;;;;5.13;4.17;;;16.00;99.90;;;;;;5132278;27;20277;-81
2023/06/08 06:23:46;;;;;;;6.97;4.70;;;16.20;99.90;;;;;;5132039;27;20278;-81
2023/06/08 06:27:40;;;;;;;6.83;3.97;;;16.40;99.90;;;;;;5134585;27;20295;-80
2023/06/08 06:31:37;;;;;;;5.60;4.43;;;16.40;99.90;;;;;;5135993;27;20273;-81
2023/06/08 06:35:33;;;;;;;5.93;4.20;;;16.60;99.90;;;;;;5135529;27;20277;-81
2023/06/08 06:39:30;;;;;;;5.37;4.37;;;16.70;99.90;;;;;;5135833;27;20277;-81
2023/06/08 06:43:30;;;;;;;8.03;4.57;;;16.90;99.90;;;;;;5114565;27;20274;-81
2023/06/08 06:47:27;;;;;;;6.13;4.47;;;17.20;99.90;;;;;;5138095;27;20284;-80
2023/06/08 06:51:27;;;;;;;6.47;4.50;;;17.40;99.90;;;;;;5135739;27;20757;-81
2023/06/08 06:55:26;;;;;;;6.17;4.43;;;17.50;99.90;;;;;;5135025;27;20277;-79
2023/06/08 06:59:28;;;;;;;6.47;4.80;;;17.60;99.90;;;;;;5134973;27;20272;-80
2023/06/08 07:03:27;;;;;;;4.93;4.43;;;17.70;99.90;;;;;;5135461;27;20287;-80
2023/06/08 07:07:27;;;;;;;4.70;4.23;;;18.00;99.90;;;;;;5093888;28;20575;-80
2023/06/08 07:11:25;;;;;;;7.17;5.03;;;18.30;99.90;;;;;;5135528;27;20280;-79
2023/06/08 07:16:25;;;;;;;5.27;4.40;;;18.60;99.90;;;;;;5137678;27;20276;-81
2023/06/08 07:18:51;;;;;;;6.43;4.60;;;18.70;99.90;;;;;;5137978;28;20744;-81
2023/06/08 07:21:20;;;;;;;6.03;5.00;;;18.90;99.90;;;;;;5137491;28;20188;-83
2023/06/08 07:23:47;;;;;;;5.27;4.77;;;19.00;99.90;;;;;;5136650;28;20607;-83
2023/06/08 07:28:19;;;;;;;4.90;4.40;;;19.30;99.90;;;;;;5138440;27;20286;-81
2023/06/08 07:30:47;;;;;;;7.53;5.40;;;19.40;99.90;;;;;;5140231;28;20210;-82
2023/06/08 07:33:13;;;;;;;5.97;5.23;;;19.40;99.90;;;;;;5138966;27;20253;-82
2023/06/08 07:35:39;;;;;;;6.93;5.07;;;19.50;99.90;;;;;;5134117;28;20613;-82
2023/06/08 07:38:06;;;;;;;5.40;4.90;;;19.70;99.90;;;;;;5135238;27;20247;-82
2023/06/08 07:40:31;;;;;;;6.10;4.97;;;19.90;99.90;;;;;;5134451;28;20179;-82
2023/06/08 07:42:57;;;;;;;6.17;4.30;;;20.00;99.90;;;;;;5134614;28;20296;-82
2023/06/08 07:45:23;;;;;;;5.97;5.03;;;20.20;99.90;;;;;;5134978;27;20689;-82
2023/06/08 07:47:48;;;;;;;5.73;4.60;;;20.30;99.90;;;;;;5133589;28;20575;-82
2023/06/08 07:50:14;;;;;;;5.77;4.43;;;20.40;99.90;;;;;;5134975;27;20176;-82
2023/06/08 07:52:40;;;;;;;9.73;5.17;;;20.50;99.90;;;;;;5133713;28;20179;-82
2023/06/08 07:55:07;;;;;;;6.63;4.93;;;20.60;99.90;;;;;;5134536;27;20172;-82
2023/06/08 07:57:32;;;;;;;5.73;5.00;;;20.70;99.90;;;;;;5133231;28;20199;-82
2023/06/08 07:59:58;;;;;;;4.97;4.07;;;20.80;99.90;;;;;;5133641;28;20638;-82
2023/06/08 08:02:24;;;;;;;6.67;4.77;;;20.80;99.90;;;;;;5133614;28;20185;-83
2023/06/08 08:04:50;;;;;;;5.40;4.17;;;21.00;99.90;;;;;;5132470;28;20206;-82
2023/06/08 08:07:16;;;;;;;5.43;4.63;;;21.10;99.90;;;;;;5131445;28;20263;-82
2023/06/08 08:09:42;;;;;;;5.50;4.30;;;21.30;99.90;;;;;;5132580;27;20258;-82
2023/06/08 08:12:09;;;;;;;4.83;4.33;;;21.50;99.90;;;;;;5131186;28;20180;-82
2023/06/08 08:14:36;;;;;;;4.87;4.37;;;21.70;99.90;;;;;;5131960;28;20179;-83
2023/06/08 08:17:02;;;;;;;6.90;4.50;;;21.80;99.90;;;;;;5134602;27;20176;-83
2023/06/08 08:19:28;;;;;;;5.73;3.73;;;21.90;99.90;;;;;;5133612;28;20184;-83
2023/06/08 08:21:54;;;;;;;4.70;3.63;;;22.10;99.90;;;;;;5133890;28;20180;-83
2023/06/08 08:24:19;;;;;;;4.63;4.23;;;22.20;99.90;;;;;;5133860;28;20182;-83
2023/06/08 08:26:45;;;;;;;5.00;4.13;;;22.40;99.90;;;;;;5133423;28;20217;-82
2023/06/08 08:29:11;;;;;;;6.83;4.03;;;22.50;99.90;;;;;;5136625;27;20218;-83
2023/06/08 08:31:36;;;;;;;5.00;4.10;;;22.70;99.90;;;;;;5135803;27;20170;-83
2023/06/08 08:34:02;;;;;;;10.03;4.20;;;22.70;99.90;;;;;;5133739;28;20614;-82
2023/06/08 08:36:28;;;;;;;5.87;4.23;;;22.80;99.90;;;;;;5132754;28;20179;-82
2023/06/08 08:38:54;;;;;;;6.17;4.13;;;22.90;99.90;;;;;;5124345;28;20287;-83
2023/06/08 08:41:21;;;;;;;4.70;4.10;;;23.10;99.90;;;;;;5120808;28;20183;-82
2023/06/08 08:44:03;;;;;;;4.60;3.73;;;23.20;99.90;;;;;;5121025;28;20177;-83
2023/06/08 08:46:34;;;;;;;4.33;3.43;;;23.40;99.90;;;;;;5120506;28;20236;-83
2023/06/08 08:49:06;;;;;;;4.73;3.43;;;23.50;98.40;;;;;;5120843;28;20281;-83
2023/06/08 08:51:32;;;;;;;4.83;3.37;;;23.70;99.90;;;;;;5121581;28;20183;-83
2023/06/08 08:54:00;;;;;;;4.43;3.30;;;23.80;99.10;;;;;;5122131;28;20180;-83
2023/06/08 08:56:28;;;;;;;5.47;3.13;;;23.90;97.60;;;;;;5121775;28;20182;-84
2023/06/08 08:58:54;;;;;;;4.97;3.80;;;24.10;96.20;;;;;;5120681;28;20730;-83
2023/06/08 09:01:22;;;;;;;8.63;4.03;;;24.30;97.90;;;;;;5120782;28;20231;-83
2023/06/08 09:03:48;;;;;;;4.67;3.67;;;24.40;98.00;;;;;;5120817;28;20181;-83
2023/06/08 09:06:14;;;;;;;3.80;3.40;;;24.50;99.20;;;;;;5126883;28;20204;-85
2023/06/08 09:08:40;;;;;;;5.03;3.57;;;24.70;98.10;;;;;;5129822;28;20202;-83
2023/06/08 09:11:09;;;;;;;4.23;3.33;;;24.80;95.30;;;;;;5121376;28;20234;-82
2023/06/08 09:13:35;;;;;;;3.73;3.23;;;25.00;97.80;;;;;;5120196;28;20202;-82
2023/06/08 09:16:08;;;;;;;5.93;4.17;;;25.10;95.20;;;;;;5121326;28;20179;-81
2023/06/08 09:18:34;;;;;;;4.30;3.47;;;25.20;95.00;;;;;;5121310;27;20214;-79
2023/06/08 09:21:19;;;;;;;5.90;3.70;;;25.30;93.40;;;;;;5120997;28;20176;-79
2023/06/08 09:23:45;;;;;;;5.63;3.90;;;25.40;94.30;;;;;;5118839;28;20198;-81
2023/06/08 09:26:30;;;;;;;3.90;3.37;;;25.60;93.00;;;;;;5116759;28;20203;-80
2023/06/08 09:28:56;;;;;;;3.53;3.23;;;25.60;91.40;;;;;;5116634;28;20199;-80
2023/06/08 09:31:21;;;;;;;3.63;3.20;;;25.70;92.80;;;;;;5116489;28;20197;-80
2023/06/08 09:33:47;;;;;;;4.10;3.70;;;25.80;90.80;;;;;;5118304;28;20635;-81
2023/06/08 09:36:15;;;;;;;4.13;3.50;;;25.90;92.90;;;;;;5119330;28;20631;-80
2023/06/08 09:38:42;;;;;;;4.03;3.10;;;26.00;92.30;;;;;;5119555;27;20192;-81
2023/06/08 09:41:11;;;;;;;3.60;3.30;;;26.10;90.20;;;;;;5117340;28;20207;-81
2023/06/08 09:43:37;;;;;;;5.43;3.63;;;26.20;90.00;;;;;;5118550;28;20179;-81
2023/06/08 09:46:02;;;;;;;3.50;3.20;;;26.30;86.10;;;;;;5118144;28;20191;-80
2023/06/08 09:48:28;;;;;;;3.57;2.93;;;26.40;87.80;;;;;;5116772;28;20290;-81
2023/06/08 09:51:00;;;;;;;3.90;2.60;;;26.50;86.50;;;;;;5116828;28;20194;-80
2023/06/08 09:53:28;;;;;;;4.40;3.40;;;26.60;84.00;;;;;;5116505;28;20182;-80
2023/06/08 09:55:54;;;;;;;3.23;2.93;;;26.70;88.00;;;;;;5117057;27;20187;-79
2023/06/08 09:58:25;;;;;;;3.30;3.00;;;26.80;84.70;;;;;;5116765;28;20218;-80
2023/06/08 10:00:55;;;;;;;5.03;3.30;;;27.00;82.30;;;;;;5116938;28;20164;-80
2023/06/08 10:03:30;;;;;;;3.73;3.30;;;27.00;83.00;;;;;;5118591;27;20170;-80
2023/06/08 10:05:57;;;;;;;4.50;3.07;;;27.10;86.90;;;;;;5117504;28;20206;-80
2023/06/08 10:08:27;;;;;;;3.33;3.03;;;27.40;90.60;;;;;;5118019;28;20248;-80
2023/06/08 10:10:55;;;;;;;4.23;3.10;;;27.50;85.30;;;;;;5117534;28;20171;-81
2023/06/08 10:13:22;;;;;;;3.97;2.97;;;27.80;85.40;;;;;;5119375;28;20693;-81
2023/06/08 10:15:48;;;;;;;3.50;3.10;;;28.10;87.40;;;;;;5119289;28;20167;-81
2023/06/08 10:18:14;;;;;;;4.03;3.20;;;28.10;81.10;;;;;;5118449;28;20194;-81
2023/06/08 10:20:41;;;;;;;3.33;3.00;;;28.10;84.10;;;;;;5118354;28;20179;-81
2023/06/08 10:23:07;;;;;;;5.33;2.93;;;28.20;84.90;;;;;;5118230;28;20179;-81
2023/06/08 10:25:34;;;;;;;4.00;3.00;;;28.20;79.90;;;;;;5118932;28;20229;-80
2023/06/08 10:28:08;;;;;;;3.97;3.07;;;28.40;79.20;;;;;;5118857;28;20556;-81
2023/06/08 10:30:40;;;;;;;4.43;2.93;;;28.40;72.40;;;;;;5119637;28;20183;-81
2023/06/08 10:33:15;;;;;;;3.47;3.17;;;28.40;76.60;;;;;;5118920;28;20172;-81
2023/06/08 10:35:43;;;;;;;3.60;3.20;;;28.50;80.90;;;;;;5118018;28;20268;-81
2023/06/08 10:38:16;;;;;;;3.60;3.10;;;28.70;70.80;;;;;;5118149;28;20196;-81
2023/06/08 10:40:47;;;;;;;4.50;2.90;;;28.80;75.10;;;;;;5117748;28;20176;-81
2023/06/08 10:43:13;;;;;;;5.03;3.03;;;29.10;78.00;;;;;;5121439;28;20187;-80
2023/06/08 10:45:43;;;;;;;3.57;3.27;;;29.30;69.00;;;;;;5121457;28;20641;-81
2023/06/08 10:48:14;;;;;;;3.40;3.10;;;29.30;70.30;;;;;;5121290;28;20258;-81
2023/06/08 10:50:42;;;;;;;4.10;3.00;;;29.20;73.20;;;;;;5122533;28;20174;-80
2023/06/08 10:53:08;;;;;;;3.77;3.03;;;29.40;71.10;;;;;;5119750;28;20178;-81
2023/06/08 10:55:34;;;;;;;3.90;3.13;;;29.70;80.30;;;;;;5121903;28;20170;-81
2023/06/08 10:58:15;;;;;;;4.03;3.10;;;30.00;78.70;;;;;;5118135;28;20191;-81
2023/06/08 11:00:42;;;;;;;4.93;3.20;;;30.20;68.80;;;;;;5119766;28;20181;-81
2023/06/08 11:03:13;;;;;;;3.23;2.93;;;30.20;71.80;;;;;;5120183;28;20200;-82
2023/06/08 11:05:43;;;;;;;3.63;3.33;;;30.10;67.00;;;;;;5118993;28;20241;-80
2023/06/08 11:08:09;;;;;;;3.93;3.23;;;30.00;68.50;;;;;;5120548;28;20215;-80
2023/06/08 11:10:39;;;;;;;4.10;3.70;;;30.10;67.90;;;;;;5117649;28;20226;-80
2023/06/08 11:13:08;;;;;;;3.40;3.07;;;29.80;67.30;;;;;;5118052;28;20160;-81
2023/06/08 11:15:37;;;;;;;4.80;3.10;;;29.80;69.70;;;;;;5118891;28;20169;-80
2023/06/08 11:18:04;;;;;;;3.53;2.90;;;29.90;69.60;;;;;;5116885;28;20197;-81
2023/06/08 11:20:30;;;;;;;3.67;3.37;;;30.10;66.60;;;;;;5116853;28;20192;-81
2023/06/08 11:22:56;;;;;;;5.60;2.90;;;30.30;67.90;;;;;;5117090;28;20172;-80
2023/06/08 11:25:23;;;;;;;3.93;3.53;;;30.30;62.20;;;;;;5118697;28;20235;-81
2023/06/08 11:27:53;;;;;;;5.00;3.03;;;30.40;64.00;;;;;;5119498;28;20209;-81
2023/06/08 11:30:20;;;;;;;3.23;2.93;;;30.40;67.70;;;;;;5117896;28;20538;-81
2023/06/08 11:32:50;;;;;;;4.53;3.40;;;30.70;65.00;;;;;;5116456;28;20234;-81
2023/06/08 11:35:23;;;;;;;3.27;2.97;;;30.90;68.00;;;;;;5116207;28;20178;-81
2023/06/08 11:37:50;;;;;;;3.20;2.90;;;31.30;64.60;;;;;;5116284;28;20228;-81
2023/06/08 11:40:16;;;;;;;4.30;3.70;;;31.50;61.70;;;;;;5117729;28;20209;-82
2023/06/08 11:42:43;;;;;;;4.23;3.10;;;31.80;61.60;;;;;;5117422;28;20506;-81
2023/06/08 11:45:10;;;;;;;4.83;3.10;;;32.00;58.30;;;;;;5113773;28;20179;-81
2023/06/08 11:47:36;;;;;;;5.93;3.40;;;32.20;66.20;;;;;;5114041;28;20211;-82
2023/06/08 11:50:03;;;;;;;4.67;3.00;;;32.30;54.70;;;;;;5119331;28;20230;-82
2023/06/08 11:52:33;;;;;;;3.53;3.23;;;32.00;57.00;;;;;;5116164;28;20175;-81
2023/06/08 11:55:01;;;;;;;3.03;2.77;;;32.00;59.50;;;;;;5117610;28;20171;-81
2023/06/08 11:57:49;;;;;;;4.03;3.40;;;32.30;58.20;;;;;;5116020;28;20219;-81
2023/06/08 12:00:15;;;;;;;3.57;3.27;;;32.40;60.30;;;;;;5115873;28;20549;-80
2023/06/08 12:02:41;;;;;;;3.53;3.17;;;32.10;59.10;;;;;;5116875;28;20207;-79
2023/06/08 12:05:13;;;;;;;5.63;3.20;;;32.40;57.10;;;;;;5116279;28;20266;-81
2023/06/08 12:07:39;;;;;;;3.57;3.27;;;32.90;54.40;;;;;;5116115;28;20294;-80
2023/06/08 12:10:05;;;;;;;3.80;3.50;;;33.00;58.20;;;;;;5115925;28;20226;-81
2023/06/08 12:12:32;;;;;;;4.27;3.93;;;32.90;54.40;;;;;;5115639;28;20175;-81
2023/06/08 12:14:58;;;;;;;4.27;3.50;;;32.80;50.00;;;;;;5121064;28;20636;-81
2023/06/08 12:17:27;;;;;;;3.47;3.17;;;32.50;54.60;;;;;;5120290;28;20332;-81
2023/06/08 12:19:54;;;;;;;4.53;3.30;;;32.90;58.20;;;;;;5124508;28;20165;-81
2023/06/08 12:22:20;;;;;;;3.60;3.30;;;33.50;52.90;;;;;;5118854;28;20206;-81
2023/06/08 12:24:46;;;;;;;4.10;3.80;;;33.50;52.10;;;;;;5118830;28;20535;-80
2023/06/08 12:27:12;;;;;;;3.57;3.27;;;33.70;55.40;;;;;;5118497;28;20238;-81
2023/06/08 12:29:38;;;;;;;4.27;3.40;;;33.90;55.10;;;;;;5120173;27;20569;-80
2023/06/08 12:32:05;;;;;;;3.47;3.23;;;34.10;52.00;;;;;;5120617;28;20169;-80
2023/06/08 12:34:31;;;;;;;3.40;3.10;;;34.00;52.30;;;;;;5119698;28;20207;-82
2023/06/08 12:36:57;;;;;;;3.37;3.10;;;33.90;54.00;;;;;;5119467;28;20176;-82
2023/06/08 12:39:23;;;;;;;7.37;3.47;;;34.00;47.20;;;;;;5121799;28;20279;-82
2023/06/08 12:41:49;;;;;;;4.07;3.77;;;34.10;53.60;;;;;;5123053;28;20169;-82
2023/06/08 12:44:14;;;;;;;4.27;3.67;;;34.30;55.40;;;;;;5120326;28;20662;-81
2023/06/08 12:46:40;;;;;;;7.10;3.57;;;34.00;54.50;;;;;;5120602;28;20217;-81
2023/06/08 12:49:06;;;;;;;4.03;3.47;;;33.40;51.70;;;;;;5121104;28;20198;-79
2023/06/08 12:51:32;;;;;;;3.60;3.30;;;33.50;54.30;;;;;;5120712;28;20213;-80
2023/06/08 12:53:58;;;;;;;6.40;3.43;;;33.50;51.40;;;;;;5120554;28;20178;-79
2023/06/08 12:56:24;;;;;;;3.83;3.43;;;33.60;50.00;;;;;;5119388;28;20648;-81
2023/06/08 12:58:50;;;;;;;3.93;3.20;;;33.10;52.00;;;;;;5119733;28;20206;-80
2023/06/08 13:01:16;;;;;;;3.63;3.33;;;32.40;56.10;;;;;;5119250;28;20185;-80
2023/06/08 13:03:45;;;;;;;4.47;3.40;;;32.10;56.90;;;;;;5117771;28;20178;-80
2023/06/08 13:06:10;;;;;;;3.97;3.10;;;31.90;53.80;;;;;;5119097;27;20177;-79
2023/06/08 13:08:36;;;;;;;4.37;3.20;;;32.20;56.50;;;;;;5118873;27;20186;-79
2023/06/08 13:11:02;;;;;;;4.00;3.60;;;32.40;56.90;;;;;;5116774;28;20186;-79
2023/06/08 13:13:28;;;;;;;4.17;3.50;;;32.50;51.80;;;;;;5118193;28;20176;-80
2023/06/08 13:15:55;;;;;;;3.80;3.47;;;31.70;50.70;;;;;;5117426;28;20220;-80
2023/06/08 13:18:21;;;;;;;3.60;3.30;;;30.30;53.90;;;;;;5117953;28;20197;-80
2023/06/08 13:20:47;;;;;;;3.83;3.50;;;29.70;58.90;;;;;;5118043;28;20176;-80
2023/06/08 13:23:14;;;;;;;5.63;3.80;;;30.10;56.40;;;;;;5117879;28;20177;-80
2023/06/08 13:25:39;;;;;;;3.13;2.83;;;31.00;60.20;;;;;;5116198;28;20179;-80
2023/06/08 13:28:07;;;;;;;5.67;3.83;;;31.80;56.80;;;;;;5117585;28;20214;-80
2023/06/08 13:30:33;;;;;;;4.07;3.20;;;32.30;56.80;;;;;;5116259;28;20689;-80
2023/06/08 13:33:00;;;;;;;4.73;3.20;;;32.30;56.00;;;;;;5115511;28;20174;-79
2023/06/08 13:35:27;;;;;;;4.20;3.17;;;32.30;57.10;;;;;;5118185;27;20192;-80
2023/06/08 13:37:53;;;;;;;3.50;3.20;;;32.20;52.80;;;;;;5119302;28;20327;-80
2023/06/08 13:40:19;;;;;;;3.20;2.90;;;31.90;51.10;;;;;;5118484;28;20230;-80
2023/06/08 13:42:44;;;;;;;3.47;3.13;;;31.60;51.30;;;;;;5118998;28;20172;-80
2023/06/08 13:45:11;;;;;;;4.73;3.43;;;31.60;49.50;;;;;;5117893;28;20278;-80
2023/06/08 13:47:37;;;;;;;3.77;3.40;;;31.20;51.30;;;;;;5119335;28;20232;-81
2023/06/08 13:50:04;;;;;;;7.60;3.40;;;31.20;54.70;;;;;;5118115;28;20182;-80
2023/06/08 13:52:30;;;;;;;3.93;3.10;;;31.40;54.40;;;;;;5118350;28;20176;-80
2023/06/08 13:54:56;;;;;;;4.20;3.53;;;31.80;52.10;;;;;;5119386;28;20229;-80
2023/06/08 13:57:22;;;;;;;3.33;3.03;;;32.20;54.70;;;;;;5117784;28;20198;-80
2023/06/08 13:59:48;;;;;;;3.93;3.13;;;32.00;52.10;;;;;;5119322;28;20177;-80
2023/06/08 14:02:13;;;;;;;3.50;3.20;;;31.60;52.10;;;;;;5119874;28;20292;-81
2023/06/08 14:04:39;;;;;;;6.10;3.67;;;31.00;56.20;;;;;;5118390;28;20185;-80
2023/06/08 14:07:05;;;;;;;3.83;3.37;;;30.10;53.70;;;;;;5118198;28;20554;-80
2023/06/08 14:09:31;;;;;;;4.77;3.73;;;29.20;54.80;;;;;;5118338;28;20185;-81
2023/06/08 14:11:57;;;;;;;4.00;3.57;;;28.40;55.00;;;;;;5117716;28;20255;-80
2023/06/08 14:14:23;;;;;;;3.50;3.20;;;27.60;56.20;;;;;;5119306;28;20220;-82
2023/06/08 14:16:48;;;;;;;3.73;3.23;;;27.00;57.80;;;;;;5118131;28;20712;-80
2023/06/08 14:19:14;;;;;;;8.50;3.43;;;26.50;57.90;;;;;;5119240;28;20191;-80
2023/06/08 14:21:40;;;;;;;3.60;3.30;;;26.10;61.50;;;;;;5122803;28;20356;-80
2023/06/08 14:24:07;;;;;;;5.90;3.20;;;25.90;61.70;;;;;;5119112;28;20201;-80
2023/06/08 14:26:33;;;;;;;4.50;3.60;;;25.60;63.00;;;;;;5117857;28;20216;-80
2023/06/08 14:28:58;;;;;;;4.40;4.00;;;25.50;64.20;;;;;;5118802;28;20192;-81
2023/06/08 14:31:24;;;;;;;3.50;3.20;;;25.40;60.90;;;;;;5116375;28;20660;-79
2023/06/08 14:33:51;;;;;;;5.10;3.40;;;25.40;62.70;;;;;;5117904;28;20170;-80
2023/06/08 14:36:17;;;;;;;4.10;3.63;;;25.40;61.20;;;;;;5117052;28;20171;-79
2023/06/08 14:38:42;;;;;;;3.83;3.40;;;25.50;64.60;;;;;;5117152;28;20552;-80
2023/06/08 14:41:08;;;;;;;4.23;3.60;;;26.10;65.50;;;;;;5117095;28;20184;-80
2023/06/08 14:43:34;;;;;;;7.83;3.40;;;27.40;61.50;;;;;;5118467;28;20177;-81
2023/06/08 14:45:59;;;;;;;5.63;4.20;;;28.50;63.80;;;;;;5118936;28;20198;-81
2023/06/08 14:48:25;;;;;;;3.83;3.37;;;29.50;54.90;;;;;;5118896;28;20252;-82
2023/06/08 14:50:51;;;;;;;5.30;3.20;;;30.20;55.30;;;;;;5117756;28;20180;-80
2023/06/08 14:53:16;;;;;;;6.30;3.60;;;30.60;57.60;;;;;;5118620;28;20360;-82
2023/06/08 14:55:42;;;;;;;5.73;3.77;;;30.90;61.30;;;;;;5118384;28;20225;-81
2023/06/08 14:58:08;;;;;;;4.90;3.60;;;31.20;57.40;;;;;;5116469;28;20201;-80
2023/06/08 15:00:33;;;;;;;7.03;3.43;;;31.40;57.90;;;;;;5117494;28;20166;-80
2023/06/08 15:02:59;;;;;;;3.47;3.17;;;31.60;57.60;;;;;;5117770;28;20174;-81
2023/06/08 15:05:25;;;;;;;6.03;3.50;;;31.40;54.90;;;;;;5116181;28;20183;-80
2023/06/08 15:07:50;;;;;;;4.50;3.47;;;31.20;53.30;;;;;;5117750;28;20208;-80
2023/06/08 15:10:16;;;;;;;4.27;3.23;;;30.30;56.80;;;;;;5117689;28;20175;-81
2023/06/08 15:12:42;;;;;;;3.80;3.40;;;30.30;55.00;;;;;;5118007;28;20693;-80
2023/06/08 15:15:08;;;;;;;4.50;3.33;;;30.60;57.30;;;;;;5115295;28;20283;-81
2023/06/08 15:17:34;;;;;;;3.47;3.00;;;30.30;54.60;;;;;;5115207;28;20194;-80
2023/06/08 15:20:04;;;;;;;4.93;3.43;;;29.50;57.10;;;;;;5113621;28;20656;-80
2023/06/08 15:22:30;;;;;;;6.50;3.80;;;28.60;55.50;;;;;;5115692;28;20183;-81
2023/06/08 15:24:56;;;;;;;4.23;3.50;;;27.60;56.90;;;;;;5117498;28;20269;-79
2023/06/08 15:27:22;;;;;;;5.30;3.53;;;26.80;58.60;;;;;;5120954;28;20244;-80
2023/06/08 15:29:47;;;;;;;5.47;3.80;;;26.20;59.30;;;;;;5116237;28;20226;-80
2023/06/08 15:32:13;;;;;;;4.77;3.30;;;25.70;61.10;;;;;;5116421;28;20633;-81
2023/06/08 15:34:39;;;;;;;3.90;3.60;;;25.40;61.80;;;;;;5118181;28;20173;-80
2023/06/08 15:37:05;;;;;;;5.03;3.10;;;25.10;64.40;;;;;;5119146;28;20178;-81
2023/06/08 15:39:30;;;;;;;6.47;4.20;;;25.00;64.60;;;;;;5117393;28;20259;-81
2023/06/08 15:41:56;;;;;;;6.33;3.87;;;24.90;62.30;;;;;;5117358;28;20267;-79
2023/06/08 15:44:24;;;;;;;4.10;3.70;;;24.80;64.30;;;;;;5116173;28;20182;-80
2023/06/08 15:46:50;;;;;;;3.97;3.53;;;24.70;64.10;;;;;;5116948;28;20191;-80
2023/06/08 15:49:15;;;;;;;3.90;3.50;;;25.10;66.80;;;;;;5118455;28;20194;-84
2023/06/08 15:51:43;;;;;;;5.13;4.17;;;26.20;62.10;;;;;;5120195;28;20171;-81
2023/06/08 15:54:09;;;;;;;5.07;3.80;;;26.80;59.80;;;;;;5120986;28;20175;-83
2023/06/08 15:56:35;;;;;;;5.97;3.80;;;26.70;59.70;;;;;;5121774;28;20549;-84
2023/06/08 15:59:01;;;;;;;5.40;4.00;;;26.80;59.30;;;;;;5120884;28;20209;-85
2023/06/08 16:01:29;;;;;;;4.93;3.90;;;26.40;60.20;;;;;;5121087;28;20176;-84
2023/06/08 16:03:55;;;;;;;7.40;3.63;;;26.20;62.00;;;;;;5122357;28;20174;-84
2023/06/08 16:06:24;;;;;;;5.77;3.63;;;26.20;63.30;;;;;;5122196;28;20246;-84
2023/06/08 16:08:50;;;;;;;3.90;3.47;;;26.00;62.00;;;;;;5122604;28;20195;-84
2023/06/08 16:11:15;;;;;;;5.93;4.60;;;25.70;61.40;;;;;;5122796;28;20204;-84
2023/06/08 16:13:41;;;;;;;4.70;4.10;;;25.40;62.40;;;;;;5124813;28;20247;-84
2023/06/08 16:16:07;;;;;;;4.00;3.60;;;25.10;63.40;;;;;;5126323;28;20198;-84
2023/06/08 16:18:33;;;;;;;4.43;3.57;;;24.80;63.60;;;;;;5121527;28;20726;-84
2023/06/08 16:20:59;;;;;;;4.70;3.53;;;24.50;66.20;;;;;;5122346;28;20172;-83
2023/06/08 16:23:25;;;;;;;5.00;3.97;;;24.30;66.00;;;;;;5121359;28;20295;-84
2023/06/08 16:25:51;;;;;;;5.97;3.80;;;24.40;67.90;;;;;;5121056;28;20266;-84
2023/06/08 16:28:16;;;;;;;4.60;4.20;;;24.40;63.80;;;;;;5122314;28;20214;-84
2023/06/08 16:30:42;;;;;;;4.23;3.30;;;24.50;64.70;;;;;;5123290;28;20651;-84
2023/06/08 16:33:08;;;;;;;5.13;4.07;;;24.40;64.70;;;;;;5123103;28;20622;-84
2023/06/08 16:35:34;;;;;;;4.57;4.10;;;24.30;65.60;;;;;;5123176;28;20656;-85
2023/06/08 16:38:00;;;;;;;4.90;3.83;;;24.20;64.00;;;;;;5123201;28;20202;-84
2023/06/08 16:40:26;;;;;;;4.90;3.97;;;24.00;65.10;;;;;;5120315;28;20677;-83
2023/06/08 16:42:51;;;;;;;5.00;3.60;;;23.90;64.90;;;;;;5122067;28;20183;-84
2023/06/08 16:45:17;;;;;;;4.93;4.23;;;23.80;68.50;;;;;;5122706;28;20183;-84
2023/06/08 16:47:43;;;;;;;4.60;3.90;;;23.60;68.90;;;;;;5121134;28;20210;-84
2023/06/08 16:50:13;;;;;;;4.37;3.97;;;23.50;71.60;;;;;;5121211;28;20177;-84
2023/06/08 16:52:39;;;;;;;5.77;3.70;;;23.40;65.50;;;;;;5121291;28;20174;-84
2023/06/08 16:55:05;;;;;;;6.07;4.00;;;23.30;68.60;;;;;;5121263;28;20232;-84
2023/06/08 16:57:35;;;;;;;6.33;4.17;;;23.20;70.90;;;;;;5121797;28;20247;-83
2023/06/08 17:00:04;;;;;;;4.27;3.60;;;23.10;67.60;;;;;;5125898;28;20207;-82
2023/06/08 17:02:29;;;;;;;6.93;4.20;;;23.00;70.00;;;;;;5122236;28;20175;-83
2023/06/08 19:01:39;;;;;;;7.00;6.27;;;17.40;99.90;;;;;;5135764;27;20272;-82
